sensor_id;sensor_type;location;lat;lon;timestamp;P1;durP1;ratioP1;P2;durP2;ratioP2
11596;SDS011;5854;48.072;16.286;2022-09-03T00:00:29;4.15;;;1.25;;
11596;SDS011;5854;48.072;16.286;2022-09-03T00:03:01;4.35;;;1.27;;
11596;SDS011;5854;48.072;16.286;2022-09-03T00:05:34;2.45;;;1.25;;
11596;SDS011;5854;48.072;16.286;2022-09-03T00:08:06;3.85;;;1.13;;
11596;SDS011;5854;48.072;16.286;2022-09-03T00:10:41;2.58;;;1.08;;
11596;SDS011;5854;48.072;16.286;2022-09-03T00:13:16;3.53;;;1.02;;
11596;SDS011;5854;48.072;16.286;2022-09-03T00:15:51;1.40;;;1.02;;
11596;SDS011;5854;48.072;16.286;2022-09-03T00:18:22;1.50;;;1.13;;
11596;SDS011;5854;48.072;16.286;2022-09-03T00:20:54;3.38;;;0.82;;
11596;SDS011;5854;48.072;16.286;2022-09-03T00:23:28;2.17;;;1.40;;
11596;SDS011;5854;48.072;16.286;2022-09-03T00:25:57;1.52;;;0.98;;
11596;SDS011;5854;48.072;16.286;2022-09-03T00:28:45;1.98;;;0.95;;
11596;SDS011;5854;48.072;16.286;2022-09-03T00:31:20;2.47;;;1.10;;
11596;SDS011;5854;48.072;16.286;2022-09-03T00:33:54;4.78;;;1.17;;
11596;SDS011;5854;48.072;16.286;2022-09-03T00:36:30;3.58;;;1.50;;
11596;SDS011;5854;48.072;16.286;2022-09-03T00:39:01;1.80;;;0.90;;
11596;SDS011;5854;48.072;16.286;2022-09-03T00:41:31;8.93;;;1.20;;
11596;SDS011;5854;48.072;16.286;2022-09-03T00:44:08;2.58;;;1.00;;
11596;SDS011;5854;48.072;16.286;2022-09-03T00:46:57;1.58;;;1.10;;
11596;SDS011;5854;48.072;16.286;2022-09-03T00:49:35;1.60;;;1.20;;
11596;SDS011;5854;48.072;16.286;2022-09-03T00:52:15;3.40;;;1.13;;
11596;SDS011;5854;48.072;16.286;2022-09-03T00:54:54;1.60;;;1.20;;
11596;SDS011;5854;48.072;16.286;2022-09-03T00:57:34;1.50;;;1.00;;
11596;SDS011;5854;48.072;16.286;2022-09-03T01:00:17;3.05;;;1.10;;
11596;SDS011;5854;48.072;16.286;2022-09-03T01:02:55;2.65;;;1.25;;
11596;SDS011;5854;48.072;16.286;2022-09-03T01:05:39;1.58;;;1.10;;
11596;SDS011;5854;48.072;16.286;2022-09-03T01:11:28;3.50;;;1.00;;
11596;SDS011;5854;48.072;16.286;2022-09-03T01:14:12;4.43;;;1.30;;
11596;SDS011;5854;48.072;16.286;2022-09-03T01:16:52;8.00;;;1.33;;
11596;SDS011;5854;48.072;16.286;2022-09-03T01:22:42;1.25;;;1.05;;
11596;SDS011;5854;48.072;16.286;2022-09-03T01:26:09;2.75;;;1.10;;
11596;SDS011;5854;48.072;16.286;2022-09-03T01:29:09;2.55;;;1.10;;
11596;SDS011;5854;48.072;16.286;2022-09-03T01:31:49;5.00;;;0.82;;
11596;SDS011;5854;48.072;16.286;2022-09-03T01:34:29;1.90;;;0.90;;
11596;SDS011;5854;48.072;16.286;2022-09-03T01:37:10;1.73;;;0.83;;
11596;SDS011;5854;48.072;16.286;2022-09-03T01:39:47;1.25;;;1.00;;
11596;SDS011;5854;48.072;16.286;2022-09-03T01:42:28;2.28;;;1.10;;
11596;SDS011;5854;48.072;16.286;2022-09-03T01:48:20;4.20;;;1.10;;
11596;SDS011;5854;48.072;16.286;2022-09-03T01:51:02;2.67;;;1.20;;
11596;SDS011;5854;48.072;16.286;2022-09-03T01:53:42;2.67;;;0.90;;
11596;SDS011;5854;48.072;16.286;2022-09-03T01:56:29;1.60;;;0.80;;
11596;SDS011;5854;48.072;16.286;2022-09-03T01:59:03;3.42;;;1.00;;
11596;SDS011;5854;48.072;16.286;2022-09-03T02:01:42;1.48;;;0.90;;
11596;SDS011;5854;48.072;16.286;2022-09-03T02:04:17;1.80;;;0.90;;
11596;SDS011;5854;48.072;16.286;2022-09-03T02:06:47;4.18;;;1.00;;
11596;SDS011;5854;48.072;16.286;2022-09-03T02:09:15;4.00;;;1.20;;
11596;SDS011;5854;48.072;16.286;2022-09-03T02:11:43;2.78;;;0.98;;
11596;SDS011;5854;48.072;16.286;2022-09-03T02:16:43;2.65;;;1.02;;
11596;SDS011;5854;48.072;16.286;2022-09-03T02:19:11;6.40;;;1.20;;
11596;SDS011;5854;48.072;16.286;2022-09-03T02:21:43;1.38;;;0.90;;
11596;SDS011;5854;48.072;16.286;2022-09-03T02:24:15;2.53;;;1.23;;
11596;SDS011;5854;48.072;16.286;2022-09-03T02:26:43;3.63;;;0.98;;
11596;SDS011;5854;48.072;16.286;2022-09-03T02:29:11;1.70;;;1.00;;
11596;SDS011;5854;48.072;16.286;2022-09-03T02:31:39;1.13;;;0.90;;
11596;SDS011;5854;48.072;16.286;2022-09-03T02:34:08;4.97;;;2.28;;
11596;SDS011;5854;48.072;16.286;2022-09-03T02:36:36;1.73;;;1.15;;
11596;SDS011;5854;48.072;16.286;2022-09-03T02:39:07;1.77;;;1.00;;
11596;SDS011;5854;48.072;16.286;2022-09-03T02:41:34;3.10;;;1.08;;
11596;SDS011;5854;48.072;16.286;2022-09-03T02:44:02;4.20;;;0.90;;
11596;SDS011;5854;48.072;16.286;2022-09-03T02:46:35;2.05;;;1.00;;
11596;SDS011;5854;48.072;16.286;2022-09-03T02:49:05;2.47;;;0.90;;
11596;SDS011;5854;48.072;16.286;2022-09-03T02:51:35;2.58;;;1.48;;
11596;SDS011;5854;48.072;16.286;2022-09-03T02:54:04;5.35;;;1.50;;
11596;SDS011;5854;48.072;16.286;2022-09-03T02:56:32;5.30;;;1.80;;
11596;SDS011;5854;48.072;16.286;2022-09-03T02:59:00;5.20;;;1.30;;
11596;SDS011;5854;48.072;16.286;2022-09-03T03:01:28;2.53;;;1.00;;
11596;SDS011;5854;48.072;16.286;2022-09-03T03:03:55;3.47;;;1.13;;
11596;SDS011;5854;48.072;16.286;2022-09-03T03:06:23;1.95;;;1.20;;
11596;SDS011;5854;48.072;16.286;2022-09-03T03:08:50;5.90;;;1.17;;
11596;SDS011;5854;48.072;16.286;2022-09-03T03:11:21;2.25;;;1.10;;
11596;SDS011;5854;48.072;16.286;2022-09-03T03:13:50;5.63;;;1.20;;
11596;SDS011;5854;48.072;16.286;2022-09-03T03:16:18;3.47;;;1.20;;
11596;SDS011;5854;48.072;16.286;2022-09-03T03:18:45;4.70;;;1.00;;
11596;SDS011;5854;48.072;16.286;2022-09-03T03:21:13;2.20;;;0.88;;
11596;SDS011;5854;48.072;16.286;2022-09-03T03:23:44;2.33;;;1.20;;
11596;SDS011;5854;48.072;16.286;2022-09-03T03:26:11;2.03;;;1.10;;
11596;SDS011;5854;48.072;16.286;2022-09-03T03:28:42;2.80;;;0.82;;
11596;SDS011;5854;48.072;16.286;2022-09-03T03:31:11;2.13;;;1.00;;
11596;SDS011;5854;48.072;16.286;2022-09-03T03:33:40;2.13;;;1.05;;
11596;SDS011;5854;48.072;16.286;2022-09-03T03:36:09;1.17;;;1.08;;
11596;SDS011;5854;48.072;16.286;2022-09-03T03:38:38;3.78;;;1.05;;
11596;SDS011;5854;48.072;16.286;2022-09-03T03:41:08;2.67;;;1.08;;
11596;SDS011;5854;48.072;16.286;2022-09-03T03:43:37;1.27;;;1.10;;
11596;SDS011;5854;48.072;16.286;2022-09-03T03:46:04;4.57;;;1.20;;
11596;SDS011;5854;48.072;16.286;2022-09-03T03:48:32;1.90;;;1.63;;
11596;SDS011;5854;48.072;16.286;2022-09-03T03:50:59;2.13;;;1.30;;
11596;SDS011;5854;48.072;16.286;2022-09-03T03:53:28;2.25;;;1.20;;
11596;SDS011;5854;48.072;16.286;2022-09-03T03:55:55;3.65;;;1.63;;
11596;SDS011;5854;48.072;16.286;2022-09-03T03:58:26;3.70;;;1.92;;
11596;SDS011;5854;48.072;16.286;2022-09-03T04:01:01;2.85;;;1.20;;
11596;SDS011;5854;48.072;16.286;2022-09-03T04:03:30;1.63;;;1.15;;
11596;SDS011;5854;48.072;16.286;2022-09-03T04:05:58;2.17;;;1.17;;
11596;SDS011;5854;48.072;16.286;2022-09-03T04:08:26;3.15;;;1.42;;
11596;SDS011;5854;48.072;16.286;2022-09-03T04:10:58;1.70;;;1.20;;
11596;SDS011;5854;48.072;16.286;2022-09-03T04:13:28;2.47;;;1.30;;
11596;SDS011;5854;48.072;16.286;2022-09-03T04:15:59;1.83;;;1.27;;
11596;SDS011;5854;48.072;16.286;2022-09-03T04:18:27;2.10;;;1.30;;
11596;SDS011;5854;48.072;16.286;2022-09-03T04:20:57;2.88;;;1.20;;
11596;SDS011;5854;48.072;16.286;2022-09-03T04:23:28;4.15;;;1.33;;
11596;SDS011;5854;48.072;16.286;2022-09-03T04:25:56;2.13;;;1.42;;
11596;SDS011;5854;48.072;16.286;2022-09-03T04:28:23;1.50;;;1.40;;
11596;SDS011;5854;48.072;16.286;2022-09-03T04:30:52;1.45;;;1.30;;
11596;SDS011;5854;48.072;16.286;2022-09-03T04:33:20;1.23;;;1.08;;
11596;SDS011;5854;48.072;16.286;2022-09-03T04:35:50;4.60;;;1.17;;
11596;SDS011;5854;48.072;16.286;2022-09-03T04:38:17;1.30;;;1.05;;
11596;SDS011;5854;48.072;16.286;2022-09-03T04:40:50;2.08;;;1.20;;
11596;SDS011;5854;48.072;16.286;2022-09-03T04:43:18;4.90;;;1.40;;
11596;SDS011;5854;48.072;16.286;2022-09-03T04:45:45;1.20;;;1.10;;
11596;SDS011;5854;48.072;16.286;2022-09-03T04:48:13;4.50;;;1.08;;
11596;SDS011;5854;48.072;16.286;2022-09-03T04:50:40;4.20;;;1.27;;
11596;SDS011;5854;48.072;16.286;2022-09-03T04:53:07;3.58;;;1.35;;
11596;SDS011;5854;48.072;16.286;2022-09-03T04:55:35;2.28;;;1.27;;
11596;SDS011;5854;48.072;16.286;2022-09-03T04:58:03;1.15;;;0.95;;
11596;SDS011;5854;48.072;16.286;2022-09-03T05:00:31;1.45;;;1.30;;
11596;SDS011;5854;48.072;16.286;2022-09-03T05:02:59;1.58;;;1.10;;
11596;SDS011;5854;48.072;16.286;2022-09-03T05:05:28;1.38;;;1.05;;
11596;SDS011;5854;48.072;16.286;2022-09-03T05:07:56;3.22;;;1.55;;
11596;SDS011;5854;48.072;16.286;2022-09-03T05:10:26;1.67;;;1.30;;
11596;SDS011;5854;48.072;16.286;2022-09-03T05:12:57;2.00;;;1.27;;
11596;SDS011;5854;48.072;16.286;2022-09-03T05:15:25;1.95;;;1.50;;
11596;SDS011;5854;48.072;16.286;2022-09-03T05:17:56;2.78;;;1.65;;
11596;SDS011;5854;48.072;16.286;2022-09-03T05:20:24;2.70;;;1.27;;
11596;SDS011;5854;48.072;16.286;2022-09-03T05:22:54;1.92;;;1.50;;
11596;SDS011;5854;48.072;16.286;2022-09-03T05:25:22;5.97;;;1.35;;
11596;SDS011;5854;48.072;16.286;2022-09-03T05:27:50;2.10;;;1.60;;
11596;SDS011;5854;48.072;16.286;2022-09-03T05:30:18;1.20;;;1.02;;
11596;SDS011;5854;48.072;16.286;2022-09-03T05:32:47;2.53;;;1.25;;
11596;SDS011;5854;48.072;16.286;2022-09-03T05:35:14;3.35;;;1.63;;
11596;SDS011;5854;48.072;16.286;2022-09-03T05:37:41;3.40;;;1.70;;
11596;SDS011;5854;48.072;16.286;2022-09-03T05:40:10;4.22;;;1.55;;
11596;SDS011;5854;48.072;16.286;2022-09-03T05:42:37;4.07;;;1.50;;
11596;SDS011;5854;48.072;16.286;2022-09-03T05:45:06;2.53;;;1.75;;
11596;SDS011;5854;48.072;16.286;2022-09-03T05:47:36;2.92;;;1.65;;
11596;SDS011;5854;48.072;16.286;2022-09-03T05:50:05;3.55;;;2.00;;
11596;SDS011;5854;48.072;16.286;2022-09-03T05:52:35;1.77;;;1.63;;
11596;SDS011;5854;48.072;16.286;2022-09-03T05:55:02;3.85;;;2.00;;
11596;SDS011;5854;48.072;16.286;2022-09-03T05:57:31;2.08;;;1.25;;
11596;SDS011;5854;48.072;16.286;2022-09-03T05:59:59;4.43;;;1.60;;
11596;SDS011;5854;48.072;16.286;2022-09-03T06:02:27;4.22;;;2.55;;
11596;SDS011;5854;48.072;16.286;2022-09-03T06:04:54;2.75;;;1.73;;
11596;SDS011;5854;48.072;16.286;2022-09-03T06:07:21;4.38;;;2.45;;
11596;SDS011;5854;48.072;16.286;2022-09-03T06:09:51;1.98;;;1.83;;
11596;SDS011;5854;48.072;16.286;2022-09-03T06:12:18;7.43;;;1.75;;
11596;SDS011;5854;48.072;16.286;2022-09-03T06:14:47;2.17;;;1.95;;
11596;SDS011;5854;48.072;16.286;2022-09-03T06:17:14;5.35;;;2.08;;
11596;SDS011;5854;48.072;16.286;2022-09-03T06:19:42;4.97;;;1.92;;
11596;SDS011;5854;48.072;16.286;2022-09-03T06:22:09;6.22;;;2.10;;
11596;SDS011;5854;48.072;16.286;2022-09-03T06:24:36;3.75;;;1.50;;
11596;SDS011;5854;48.072;16.286;2022-09-03T06:27:03;3.88;;;2.10;;
11596;SDS011;5854;48.072;16.286;2022-09-03T06:29:30;7.20;;;1.75;;
11596;SDS011;5854;48.072;16.286;2022-09-03T06:32:01;5.38;;;1.90;;
11596;SDS011;5854;48.072;16.286;2022-09-03T06:34:29;2.58;;;1.90;;
11596;SDS011;5854;48.072;16.286;2022-09-03T06:36:56;2.55;;;1.83;;
11596;SDS011;5854;48.072;16.286;2022-09-03T06:39:23;2.13;;;1.73;;
11596;SDS011;5854;48.072;16.286;2022-09-03T06:41:51;4.97;;;2.22;;
11596;SDS011;5854;48.072;16.286;2022-09-03T06:44:19;4.03;;;2.10;;
11596;SDS011;5854;48.072;16.286;2022-09-03T06:46:46;2.45;;;2.10;;
11596;SDS011;5854;48.072;16.286;2022-09-03T06:49:15;7.55;;;2.00;;
11596;SDS011;5854;48.072;16.286;2022-09-03T06:51:43;5.18;;;1.50;;
11596;SDS011;5854;48.072;16.286;2022-09-03T06:54:10;4.20;;;1.98;;
11596;SDS011;5854;48.072;16.286;2022-09-03T06:56:40;3.28;;;2.42;;
11596;SDS011;5854;48.072;16.286;2022-09-03T06:59:07;2.63;;;2.05;;
11596;SDS011;5854;48.072;16.286;2022-09-03T07:01:36;1.95;;;1.85;;
11596;SDS011;5854;48.072;16.286;2022-09-03T07:04:05;2.08;;;1.55;;
11596;SDS011;5854;48.072;16.286;2022-09-03T07:06:35;5.75;;;2.10;;
11596;SDS011;5854;48.072;16.286;2022-09-03T07:09:04;6.40;;;1.90;;
11596;SDS011;5854;48.072;16.286;2022-09-03T07:11:32;4.80;;;2.22;;
11596;SDS011;5854;48.072;16.286;2022-09-03T07:14:01;4.00;;;2.30;;
11596;SDS011;5854;48.072;16.286;2022-09-03T07:16:31;4.05;;;1.35;;
11596;SDS011;5854;48.072;16.286;2022-09-03T07:19:00;11.45;;;1.60;;
11596;SDS011;5854;48.072;16.286;2022-09-03T07:21:29;2.03;;;1.30;;
11596;SDS011;5854;48.072;16.286;2022-09-03T07:24:02;2.05;;;1.42;;
11596;SDS011;5854;48.072;16.286;2022-09-03T07:26:31;2.88;;;1.70;;
11596;SDS011;5854;48.072;16.286;2022-09-03T07:29:00;3.90;;;1.70;;
11596;SDS011;5854;48.072;16.286;2022-09-03T07:31:29;6.32;;;1.75;;
11596;SDS011;5854;48.072;16.286;2022-09-03T07:33:58;7.28;;;1.85;;
11596;SDS011;5854;48.072;16.286;2022-09-03T07:36:28;5.03;;;1.48;;
11596;SDS011;5854;48.072;16.286;2022-09-03T07:38:56;2.58;;;1.10;;
11596;SDS011;5854;48.072;16.286;2022-09-03T07:41:26;1.55;;;1.20;;
11596;SDS011;5854;48.072;16.286;2022-09-03T07:43:53;2.40;;;1.52;;
11596;SDS011;5854;48.072;16.286;2022-09-03T07:46:21;8.35;;;1.75;;
11596;SDS011;5854;48.072;16.286;2022-09-03T07:48:51;4.60;;;1.20;;
11596;SDS011;5854;48.072;16.286;2022-09-03T07:51:20;5.68;;;1.35;;
11596;SDS011;5854;48.072;16.286;2022-09-03T07:53:51;2.13;;;1.30;;
11596;SDS011;5854;48.072;16.286;2022-09-03T07:56:20;2.38;;;1.15;;
11596;SDS011;5854;48.072;16.286;2022-09-03T07:58:49;1.23;;;1.00;;
11596;SDS011;5854;48.072;16.286;2022-09-03T08:01:16;1.92;;;1.38;;
11596;SDS011;5854;48.072;16.286;2022-09-03T08:03:47;5.10;;;1.00;;
11596;SDS011;5854;48.072;16.286;2022-09-03T08:06:17;5.53;;;1.73;;
11596;SDS011;5854;48.072;16.286;2022-09-03T08:08:46;3.83;;;1.58;;
11596;SDS011;5854;48.072;16.286;2022-09-03T08:11:13;1.52;;;1.42;;
11596;SDS011;5854;48.072;16.286;2022-09-03T08:13:43;5.38;;;1.20;;
11596;SDS011;5854;48.072;16.286;2022-09-03T08:16:14;2.90;;;1.58;;
11596;SDS011;5854;48.072;16.286;2022-09-03T08:18:43;7.18;;;1.30;;
11596;SDS011;5854;48.072;16.286;2022-09-03T08:21:12;2.72;;;2.30;;
11596;SDS011;5854;48.072;16.286;2022-09-03T08:23:41;6.10;;;1.50;;
11596;SDS011;5854;48.072;16.286;2022-09-03T08:26:11;3.55;;;1.88;;
11596;SDS011;5854;48.072;16.286;2022-09-03T08:28:39;5.55;;;1.60;;
11596;SDS011;5854;48.072;16.286;2022-09-03T08:31:07;2.35;;;1.70;;
11596;SDS011;5854;48.072;16.286;2022-09-03T08:33:38;1.60;;;1.40;;
11596;SDS011;5854;48.072;16.286;2022-09-03T08:36:07;4.57;;;1.95;;
11596;SDS011;5854;48.072;16.286;2022-09-03T08:38:37;10.50;;;2.15;;
11596;SDS011;5854;48.072;16.286;2022-09-03T08:41:09;1.88;;;1.63;;
11596;SDS011;5854;48.072;16.286;2022-09-03T08:43:50;14.77;;;2.00;;
11596;SDS011;5854;48.072;16.286;2022-09-03T08:46:32;1.65;;;1.17;;
11596;SDS011;5854;48.072;16.286;2022-09-03T08:49:13;5.37;;;1.57;;
11596;SDS011;5854;48.072;16.286;2022-09-03T08:51:46;2.25;;;1.40;;
11596;SDS011;5854;48.072;16.286;2022-09-03T08:54:15;5.20;;;1.70;;
11596;SDS011;5854;48.072;16.286;2022-09-03T08:56:43;9.95;;;1.98;;
11596;SDS011;5854;48.072;16.286;2022-09-03T08:59:12;9.50;;;1.63;;
11596;SDS011;5854;48.072;16.286;2022-09-03T09:01:42;2.67;;;1.67;;
11596;SDS011;5854;48.072;16.286;2022-09-03T09:04:23;7.30;;;1.60;;
11596;SDS011;5854;48.072;16.286;2022-09-03T09:07:07;2.08;;;1.40;;
11596;SDS011;5854;48.072;16.286;2022-09-03T09:09:43;15.60;;;1.73;;
11596;SDS011;5854;48.072;16.286;2022-09-03T09:12:19;5.85;;;1.50;;
11596;SDS011;5854;48.072;16.286;2022-09-03T09:15:02;3.90;;;1.25;;
11596;SDS011;5854;48.072;16.286;2022-09-03T09:17:44;7.03;;;1.65;;
11596;SDS011;5854;48.072;16.286;2022-09-03T09:20:31;2.35;;;1.15;;
11596;SDS011;5854;48.072;16.286;2022-09-03T09:23:07;6.45;;;1.33;;
11596;SDS011;5854;48.072;16.286;2022-09-03T09:25:42;5.38;;;1.33;;
11596;SDS011;5854;48.072;16.286;2022-09-03T09:28:15;5.38;;;1.52;;
11596;SDS011;5854;48.072;16.286;2022-09-03T09:30:45;2.77;;;1.37;;
11596;SDS011;5854;48.072;16.286;2022-09-03T09:33:14;4.45;;;1.40;;
11596;SDS011;5854;48.072;16.286;2022-09-03T09:35:45;3.67;;;1.92;;
11596;SDS011;5854;48.072;16.286;2022-09-03T09:38:13;6.00;;;1.55;;
11596;SDS011;5854;48.072;16.286;2022-09-03T09:40:41;7.85;;;1.50;;
11596;SDS011;5854;48.072;16.286;2022-09-03T09:43:11;5.93;;;1.55;;
11596;SDS011;5854;48.072;16.286;2022-09-03T09:45:41;4.22;;;1.30;;
11596;SDS011;5854;48.072;16.286;2022-09-03T09:48:14;2.08;;;1.15;;
11596;SDS011;5854;48.072;16.286;2022-09-03T09:50:48;3.85;;;1.20;;
11596;SDS011;5854;48.072;16.286;2022-09-03T09:53:16;4.88;;;1.60;;
11596;SDS011;5854;48.072;16.286;2022-09-03T09:55:52;1.75;;;1.10;;
11596;SDS011;5854;48.072;16.286;2022-09-03T09:58:21;9.52;;;1.58;;
11596;SDS011;5854;48.072;16.286;2022-09-03T10:00:53;6.53;;;1.40;;
11596;SDS011;5854;48.072;16.286;2022-09-03T10:03:23;3.55;;;1.25;;
11596;SDS011;5854;48.072;16.286;2022-09-03T10:06:00;2.80;;;1.13;;
11596;SDS011;5854;48.072;16.286;2022-09-03T10:08:45;8.15;;;1.33;;
11596;SDS011;5854;48.072;16.286;2022-09-03T10:11:13;5.13;;;1.30;;
11596;SDS011;5854;48.072;16.286;2022-09-03T10:13:42;1.50;;;0.90;;
11596;SDS011;5854;48.072;16.286;2022-09-03T10:16:16;3.30;;;1.17;;
11596;SDS011;5854;48.072;16.286;2022-09-03T10:18:51;1.23;;;1.10;;
11596;SDS011;5854;48.072;16.286;2022-09-03T10:21:29;3.97;;;1.45;;
11596;SDS011;5854;48.072;16.286;2022-09-03T10:24:03;6.82;;;1.40;;
11596;SDS011;5854;48.072;16.286;2022-09-03T10:29:34;1.58;;;0.95;;
11596;SDS011;5854;48.072;16.286;2022-09-03T10:32:08;5.00;;;1.30;;
11596;SDS011;5854;48.072;16.286;2022-09-03T10:34:51;2.85;;;1.20;;
11596;SDS011;5854;48.072;16.286;2022-09-03T10:37:33;1.30;;;1.10;;
11596;SDS011;5854;48.072;16.286;2022-09-03T10:40:17;3.28;;;1.27;;
11596;SDS011;5854;48.072;16.286;2022-09-03T10:42:59;5.28;;;1.10;;
11596;SDS011;5854;48.072;16.286;2022-09-03T10:46:01;3.55;;;1.23;;
11596;SDS011;5854;48.072;16.286;2022-09-03T10:48:42;6.25;;;1.20;;
11596;SDS011;5854;48.072;16.286;2022-09-03T10:51:22;2.35;;;1.20;;
11596;SDS011;5854;48.072;16.286;2022-09-03T10:54:03;1.25;;;0.95;;
11596;SDS011;5854;48.072;16.286;2022-09-03T10:56:49;5.35;;;1.10;;
11596;SDS011;5854;48.072;16.286;2022-09-03T10:59:34;4.18;;;1.38;;
11596;SDS011;5854;48.072;16.286;2022-09-03T11:05:14;7.57;;;1.20;;
11596;SDS011;5854;48.072;16.286;2022-09-03T11:07:47;5.68;;;1.67;;
11596;SDS011;5854;48.072;16.286;2022-09-03T11:10:25;1.63;;;1.05;;
11596;SDS011;5854;48.072;16.286;2022-09-03T11:12:58;5.93;;;1.13;;
11596;SDS011;5854;48.072;16.286;2022-09-03T11:15:33;2.47;;;1.20;;
11596;SDS011;5854;48.072;16.286;2022-09-03T11:18:07;1.75;;;0.90;;
11596;SDS011;5854;48.072;16.286;2022-09-03T11:20:45;1.85;;;0.80;;
11596;SDS011;5854;48.072;16.286;2022-09-03T11:23:14;4.20;;;0.98;;
11596;SDS011;5854;48.072;16.286;2022-09-03T11:25:45;1.48;;;0.80;;
11596;SDS011;5854;48.072;16.286;2022-09-03T11:28:19;1.30;;;0.80;;
11596;SDS011;5854;48.072;16.286;2022-09-03T11:31:03;1.23;;;0.88;;
11596;SDS011;5854;48.072;16.286;2022-09-03T11:33:43;2.28;;;1.10;;
11596;SDS011;5854;48.072;16.286;2022-09-03T11:36:20;5.68;;;1.00;;
11596;SDS011;5854;48.072;16.286;2022-09-03T11:38:57;2.65;;;0.90;;
11596;SDS011;5854;48.072;16.286;2022-09-03T11:41:27;4.43;;;0.95;;
11596;SDS011;5854;48.072;16.286;2022-09-03T11:44:09;1.80;;;0.90;;
11596;SDS011;5854;48.072;16.286;2022-09-03T11:46:51;1.70;;;0.80;;
11596;SDS011;5854;48.072;16.286;2022-09-03T11:49:24;1.08;;;0.98;;
11596;SDS011;5854;48.072;16.286;2022-09-03T11:51:57;4.45;;;1.00;;
11596;SDS011;5854;48.072;16.286;2022-09-03T11:54:26;2.60;;;0.85;;
11596;SDS011;5854;48.072;16.286;2022-09-03T11:57:10;1.73;;;0.95;;
11596;SDS011;5854;48.072;16.286;2022-09-03T11:59:40;2.40;;;0.80;;
11596;SDS011;5854;48.072;16.286;2022-09-03T12:02:16;4.70;;;1.20;;
11596;SDS011;5854;48.072;16.286;2022-09-03T12:07:34;1.63;;;0.90;;
11596;SDS011;5854;48.072;16.286;2022-09-03T12:10:22;3.70;;;0.70;;
11596;SDS011;5854;48.072;16.286;2022-09-03T12:13:02;3.00;;;1.00;;
11596;SDS011;5854;48.072;16.286;2022-09-03T12:18:40;1.05;;;0.63;;
11596;SDS011;5854;48.072;16.286;2022-09-03T12:21:09;4.85;;;1.00;;
11596;SDS011;5854;48.072;16.286;2022-09-03T12:23:39;1.40;;;1.00;;
11596;SDS011;5854;48.072;16.286;2022-09-03T12:26:10;1.10;;;0.70;;
11596;SDS011;5854;48.072;16.286;2022-09-03T12:28:41;1.65;;;0.80;;
11596;SDS011;5854;48.072;16.286;2022-09-03T12:31:16;9.75;;;1.10;;
11596;SDS011;5854;48.072;16.286;2022-09-03T12:36:15;3.20;;;0.75;;
11596;SDS011;5854;48.072;16.286;2022-09-03T12:38:43;1.58;;;1.10;;
11596;SDS011;5854;48.072;16.286;2022-09-03T12:41:21;3.35;;;0.77;;
11596;SDS011;5854;48.072;16.286;2022-09-03T12:43:53;5.10;;;1.35;;
11596;SDS011;5854;48.072;16.286;2022-09-03T12:46:23;2.13;;;0.90;;
11596;SDS011;5854;48.072;16.286;2022-09-03T12:48:53;1.30;;;0.80;;
11596;SDS011;5854;48.072;16.286;2022-09-03T12:51:29;1.75;;;0.60;;
11596;SDS011;5854;48.072;16.286;2022-09-03T12:53:58;2.10;;;0.82;;
11596;SDS011;5854;48.072;16.286;2022-09-03T12:56:26;1.00;;;0.70;;
11596;SDS011;5854;48.072;16.286;2022-09-03T12:58:57;2.63;;;0.85;;
11596;SDS011;5854;48.072;16.286;2022-09-03T13:01:29;1.52;;;0.60;;
11596;SDS011;5854;48.072;16.286;2022-09-03T13:04:01;2.35;;;0.80;;
11596;SDS011;5854;48.072;16.286;2022-09-03T13:06:42;4.35;;;0.75;;
11596;SDS011;5854;48.072;16.286;2022-09-03T13:09:15;3.97;;;0.85;;
11596;SDS011;5854;48.072;16.286;2022-09-03T13:11:47;1.80;;;0.88;;
11596;SDS011;5854;48.072;16.286;2022-09-03T13:14:17;2.40;;;0.80;;
11596;SDS011;5854;48.072;16.286;2022-09-03T13:19:47;5.03;;;0.80;;
11596;SDS011;5854;48.072;16.286;2022-09-03T13:22:42;1.83;;;0.88;;
11596;SDS011;5854;48.072;16.286;2022-09-03T13:27:53;2.25;;;0.82;;
11596;SDS011;5854;48.072;16.286;2022-09-03T13:30:32;2.00;;;0.70;;
11596;SDS011;5854;48.072;16.286;2022-09-03T13:33:13;1.48;;;0.90;;
11596;SDS011;5854;48.072;16.286;2022-09-03T13:35:48;2.40;;;0.80;;
11596;SDS011;5854;48.072;16.286;2022-09-03T13:38:26;2.92;;;1.10;;
11596;SDS011;5854;48.072;16.286;2022-09-03T13:41:00;3.22;;;0.80;;
11596;SDS011;5854;48.072;16.286;2022-09-03T13:43:45;0.77;;;0.60;;
11596;SDS011;5854;48.072;16.286;2022-09-03T13:46:22;1.63;;;0.75;;
11596;SDS011;5854;48.072;16.286;2022-09-03T13:48:56;2.08;;;0.90;;
11596;SDS011;5854;48.072;16.286;2022-09-03T13:51:53;3.03;;;0.90;;
11596;SDS011;5854;48.072;16.286;2022-09-03T13:54:26;2.17;;;0.70;;
11596;SDS011;5854;48.072;16.286;2022-09-03T13:57:03;6.60;;;0.82;;
11596;SDS011;5854;48.072;16.286;2022-09-03T13:59:39;2.70;;;0.70;;
11596;SDS011;5854;48.072;16.286;2022-09-03T14:02:17;1.45;;;0.80;;
11596;SDS011;5854;48.072;16.286;2022-09-03T14:05:03;2.45;;;0.70;;
11596;SDS011;5854;48.072;16.286;2022-09-03T14:07:42;1.23;;;0.75;;
11596;SDS011;5854;48.072;16.286;2022-09-03T14:10:20;2.25;;;0.60;;
11596;SDS011;5854;48.072;16.286;2022-09-03T14:12:59;2.65;;;0.80;;
11596;SDS011;5854;48.072;16.286;2022-09-03T14:15:40;1.00;;;0.90;;
11596;SDS011;5854;48.072;16.286;2022-09-03T14:18:15;2.95;;;0.77;;
11596;SDS011;5854;48.072;16.286;2022-09-03T14:21:03;0.70;;;0.70;;
11596;SDS011;5854;48.072;16.286;2022-09-03T14:23:39;3.08;;;0.60;;
11596;SDS011;5854;48.072;16.286;2022-09-03T14:26:16;3.10;;;1.10;;
11596;SDS011;5854;48.072;16.286;2022-09-03T14:28:47;7.55;;;0.73;;
11596;SDS011;5854;48.072;16.286;2022-09-03T14:31:26;2.47;;;0.65;;
11596;SDS011;5854;48.072;16.286;2022-09-03T14:34:19;5.05;;;0.75;;
11596;SDS011;5854;48.072;16.286;2022-09-03T14:37:01;1.88;;;1.02;;
11596;SDS011;5854;48.072;16.286;2022-09-03T14:39:37;1.45;;;0.90;;
11596;SDS011;5854;48.072;16.286;2022-09-03T14:42:22;2.78;;;0.68;;
11596;SDS011;5854;48.072;16.286;2022-09-03T14:48:34;3.17;;;0.63;;
11596;SDS011;5854;48.072;16.286;2022-09-03T14:51:31;1.85;;;0.80;;
11596;SDS011;5854;48.072;16.286;2022-09-03T14:54:18;1.33;;;0.90;;
11596;SDS011;5854;48.072;16.286;2022-09-03T14:57:01;2.58;;;0.93;;
11596;SDS011;5854;48.072;16.286;2022-09-03T14:59:58;3.35;;;0.70;;
11596;SDS011;5854;48.072;16.286;2022-09-03T15:02:45;3.72;;;0.75;;
11596;SDS011;5854;48.072;16.286;2022-09-03T15:05:38;12.75;;;1.48;;
11596;SDS011;5854;48.072;16.286;2022-09-03T15:08:20;1.10;;;0.60;;
11596;SDS011;5854;48.072;16.286;2022-09-03T15:11:09;0.73;;;0.65;;
11596;SDS011;5854;48.072;16.286;2022-09-03T15:13:44;1.60;;;0.90;;
11596;SDS011;5854;48.072;16.286;2022-09-03T15:16:20;5.00;;;0.70;;
11596;SDS011;5854;48.072;16.286;2022-09-03T15:19:02;1.75;;;0.75;;
11596;SDS011;5854;48.072;16.286;2022-09-03T15:21:42;0.98;;;0.68;;
11596;SDS011;5854;48.072;16.286;2022-09-03T15:24:26;2.33;;;0.80;;
11596;SDS011;5854;48.072;16.286;2022-09-03T15:27:14;1.13;;;0.60;;
11596;SDS011;5854;48.072;16.286;2022-09-03T15:30:04;4.20;;;0.70;;
11596;SDS011;5854;48.072;16.286;2022-09-03T15:32:42;7.05;;;0.80;;
11596;SDS011;5854;48.072;16.286;2022-09-03T15:35:18;3.50;;;0.90;;
11596;SDS011;5854;48.072;16.286;2022-09-03T15:38:06;4.28;;;0.73;;
11596;SDS011;5854;48.072;16.286;2022-09-03T15:40:41;3.00;;;0.68;;
11596;SDS011;5854;48.072;16.286;2022-09-03T15:43:16;1.15;;;0.77;;
11596;SDS011;5854;48.072;16.286;2022-09-03T15:45:51;2.95;;;0.80;;
11596;SDS011;5854;48.072;16.286;2022-09-03T15:48:25;3.42;;;0.90;;
11596;SDS011;5854;48.072;16.286;2022-09-03T15:51:04;5.85;;;0.65;;
11596;SDS011;5854;48.072;16.286;2022-09-03T15:53:40;3.22;;;0.90;;
11596;SDS011;5854;48.072;16.286;2022-09-03T15:56:19;3.05;;;0.82;;
11596;SDS011;5854;48.072;16.286;2022-09-03T15:58:55;2.88;;;0.77;;
11596;SDS011;5854;48.072;16.286;2022-09-03T16:01:32;1.90;;;1.00;;